Time;durP1;ratioP1;P1;durP2;ratioP2;P2;SDS_P1;SDS_P2;PMS_P1;PMS_P2;Temp;Humidity;BMP_temperature;BMP_pressure;BME280_temperature;BME280_humidity;BME280_pressure;Samples;Min_cycle;Max_cycle;Signal;HPM_P1;HPM_P2
2022/08/13 00:00:59;;;;;;;1.50;1.40;;;;;;;;;;5050390;28;20422;-74
2022/08/13 00:03:26;;;;;;;1.27;1.27;;;;;;;;;;5043728;28;21005;-74
2022/08/13 00:05:52;;;;;;;1.10;1.10;;;;;;;;;;5054671;28;20517;-73
2022/08/13 00:08:22;;;;;;;1.13;1.13;;;;;;;;;;5045684;28;20432;-74
2022/08/13 00:10:48;;;;;;;1.33;1.20;;;;;;;;;;5042801;28;20431;-74
2022/08/13 00:13:16;;;;;;;1.00;1.00;;;;;;;;;;5052129;28;20438;-74
2022/08/13 00:15:43;;;;;;;1.23;1.23;;;;;;;;;;5047038;28;20430;-74
2022/08/13 00:18:11;;;;;;;4.40;1.40;;;;;;;;;;5055378;28;20846;-74
2022/08/13 00:20:42;;;;;;;1.37;0.87;;;;;;;;;;5057726;28;20462;-74
2022/08/13 00:23:10;;;;;;;0.90;0.90;;;;;;;;;;5064006;28;20492;-74
2022/08/13 00:25:36;;;;;;;0.87;0.87;;;;;;;;;;5071716;28;20469;-73
2022/08/13 00:28:04;;;;;;;6.63;1.23;;;;;;;;;;5060864;28;20988;-74
2022/08/13 00:30:31;;;;;;;1.00;1.00;;;;;;;;;;5049328;28;20441;-74
2022/08/13 00:32:59;;;;;;;2.30;0.80;;;;;;;;;;5044705;28;20907;-74
2022/08/13 00:35:25;;;;;;;0.97;0.97;;;;;;;;;;5065184;28;20435;-74
2022/08/13 00:37:52;;;;;;;1.00;1.00;;;;;;;;;;5064543;28;20430;-74
2022/08/13 00:40:18;;;;;;;0.80;0.80;;;;;;;;;;5065981;28;20422;-74
2022/08/13 00:42:44;;;;;;;0.70;0.70;;;;;;;;;;5045481;28;20540;-73
2022/08/13 00:45:10;;;;;;;2.60;0.70;;;;;;;;;;5067038;28;20582;-73
2022/08/13 00:50:21;;;;;;;0.70;0.70;;;;;;;;;;5059845;28;20808;-74
2022/08/13 00:52:49;;;;;;;1.00;1.00;;;;;;;;;;5053375;28;20421;-73
2022/08/13 00:55:17;;;;;;;0.87;0.83;;;;;;;;;;5042193;28;20478;-74
2022/08/13 00:57:44;;;;;;;1.03;0.80;;;;;;;;;;5052909;28;20427;-74
2022/08/13 01:00:13;;;;;;;0.97;0.77;;;;;;;;;;5052963;28;20434;-73
2022/08/13 01:02:50;;;;;;;0.70;0.70;;;;;;;;;;5048576;28;20836;-74
2022/08/13 01:05:16;;;;;;;0.90;0.90;;;;;;;;;;5048436;28;20480;-74
2022/08/13 01:07:43;;;;;;;1.10;1.10;;;;;;;;;;5052980;28;20516;-73
2022/08/13 01:10:10;;;;;;;2.50;1.50;;;;;;;;;;5037891;28;20438;-74
2022/08/13 01:12:37;;;;;;;1.00;1.00;;;;;;;;;;5051867;28;20441;-73
2022/08/13 01:15:04;;;;;;;7.20;1.30;;;;;;;;;;5057850;28;20442;-74
2022/08/13 01:17:31;;;;;;;1.63;1.53;;;;;;;;;;5047452;28;20522;-74
2022/08/13 01:19:57;;;;;;;1.50;1.50;;;;;;;;;;5049343;28;20932;-74
2022/08/13 01:22:24;;;;;;;1.33;1.20;;;;;;;;;;5053761;28;20429;-74
2022/08/13 01:24:51;;;;;;;1.13;1.13;;;;;;;;;;5056849;28;20438;-74
2022/08/13 01:27:21;;;;;;;1.17;1.00;;;;;;;;;;5051191;28;20430;-73
2022/08/13 01:29:48;;;;;;;1.00;1.00;;;;;;;;;;5045249;28;20533;-74
2022/08/13 01:32:15;;;;;;;0.83;0.83;;;;;;;;;;5054019;28;20484;-74
2022/08/13 01:34:42;;;;;;;1.03;1.03;;;;;;;;;;5053309;28;20448;-74
2022/08/13 01:37:09;;;;;;;0.80;0.80;;;;;;;;;;5062477;28;20514;-74
2022/08/13 01:39:35;;;;;;;0.80;0.80;;;;;;;;;;5054460;28;20867;-74
2022/08/13 01:42:01;;;;;;;0.80;0.80;;;;;;;;;;5052113;28;20512;-74
2022/08/13 01:44:30;;;;;;;0.90;0.90;;;;;;;;;;5048504;28;20489;-74
2022/08/13 01:52:33;;;;;;;0.80;0.80;;;;;;;;;;5057360;28;20428;-74
2022/08/13 01:55:01;;;;;;;1.07;1.07;;;;;;;;;;5033658;28;20458;-73
2022/08/13 01:57:27;;;;;;;5.70;0.90;;;;;;;;;;5052571;28;20945;-74
2022/08/13 01:59:53;;;;;;;0.67;0.67;;;;;;;;;;5051863;28;20423;-73
2022/08/13 02:02:23;;;;;;;1.10;0.87;;;;;;;;;;5060812;28;20436;-74
2022/08/13 02:04:49;;;;;;;6.73;1.10;;;;;;;;;;5054519;28;20466;-74
2022/08/13 02:07:15;;;;;;;0.90;0.67;;;;;;;;;;5063867;28;20482;-74
2022/08/13 02:09:43;;;;;;;0.70;0.70;;;;;;;;;;5052883;28;20456;-73
2022/08/13 02:12:12;;;;;;;0.90;0.90;;;;;;;;;;5064938;28;20505;-73
2022/08/13 02:14:42;;;;;;;0.80;0.80;;;;;;;;;;5057461;28;20437;-73
2022/08/13 02:17:24;;;;;;;0.90;0.90;;;;;;;;;;5060457;28;20423;-73
2022/08/13 02:19:51;;;;;;;1.00;1.00;;;;;;;;;;5037367;28;20430;-73
2022/08/13 02:22:17;;;;;;;0.83;0.83;;;;;;;;;;5052369;28;20795;-73
2022/08/13 02:24:49;;;;;;;1.80;0.70;;;;;;;;;;5064388;28;20933;-73
2022/08/13 02:27:15;;;;;;;1.07;1.07;;;;;;;;;;5060731;28;20421;-73
2022/08/13 02:29:44;;;;;;;0.80;0.80;;;;;;;;;;5045879;28;20476;-73
2022/08/13 02:32:10;;;;;;;1.33;0.87;;;;;;;;;;5063619;28;20425;-73
2022/08/13 02:34:38;;;;;;;1.57;0.80;;;;;;;;;;5046486;28;20844;-73
2022/08/13 02:37:04;;;;;;;0.67;0.67;;;;;;;;;;5045849;28;20418;-73
2022/08/13 02:39:30;;;;;;;1.07;1.07;;;;;;;;;;5053976;28;20802;-73
2022/08/13 02:41:57;;;;;;;1.80;0.80;;;;;;;;;;5063412;28;20432;-73
2022/08/13 02:44:25;;;;;;;6.87;0.97;;;;;;;;;;5062794;28;20607;-73
2022/08/13 02:46:51;;;;;;;0.87;0.87;;;;;;;;;;5058444;28;20444;-73
2022/08/13 02:49:21;;;;;;;4.53;1.10;;;;;;;;;;5064081;28;20929;-73
2022/08/13 02:51:47;;;;;;;0.80;0.80;;;;;;;;;;5073810;28;20429;-73
2022/08/13 02:54:16;;;;;;;0.70;0.70;;;;;;;;;;5070940;28;20466;-73
2022/08/13 02:56:44;;;;;;;0.80;0.80;;;;;;;;;;5054947;28;20434;-73
2022/08/13 02:59:10;;;;;;;0.63;0.63;;;;;;;;;;5063858;28;20422;-73
2022/08/13 03:01:40;;;;;;;2.30;0.97;;;;;;;;;;5058949;28;20464;-73
2022/08/13 03:04:08;;;;;;;0.60;0.60;;;;;;;;;;5053475;28;20470;-73
2022/08/13 03:06:34;;;;;;;1.90;0.90;;;;;;;;;;5055692;28;20976;-73
2022/08/13 03:09:02;;;;;;;12.23;1.37;;;;;;;;;;5040187;28;20435;-73
2022/08/13 03:11:32;;;;;;;0.87;0.87;;;;;;;;;;5056220;28;20779;-73
2022/08/13 03:14:06;;;;;;;2.73;1.17;;;;;;;;;;5062243;28;20512;-73
2022/08/13 03:16:32;;;;;;;0.90;0.90;;;;;;;;;;5046696;28;20430;-73
2022/08/13 03:18:58;;;;;;;0.60;0.60;;;;;;;;;;5040581;28;20426;-73
2022/08/13 03:21:32;;;;;;;1.00;1.00;;;;;;;;;;5058980;28;20475;-73
2022/08/13 03:23:58;;;;;;;0.70;0.70;;;;;;;;;;5052525;28;20485;-73
2022/08/13 03:26:24;;;;;;;0.93;0.93;;;;;;;;;;5058523;28;20950;-73
2022/08/13 03:28:51;;;;;;;1.07;1.07;;;;;;;;;;5048576;28;20439;-73
2022/08/13 03:31:20;;;;;;;1.03;0.87;;;;;;;;;;5053206;28;20754;-73
2022/08/13 03:33:47;;;;;;;1.63;0.93;;;;;;;;;;5053251;28;20439;-73
2022/08/13 03:36:13;;;;;;;1.13;1.13;;;;;;;;;;5042162;28;20610;-73
2022/08/13 03:38:39;;;;;;;0.70;0.70;;;;;;;;;;5053946;28;20450;-73
2022/08/13 03:41:11;;;;;;;1.03;1.03;;;;;;;;;;5054392;28;20422;-73
2022/08/13 03:43:38;;;;;;;1.17;1.07;;;;;;;;;;5042858;28;20508;-73
2022/08/13 03:46:04;;;;;;;3.30;1.13;;;;;;;;;;5048528;28;20503;-73
2022/08/13 03:48:30;;;;;;;1.17;1.17;;;;;;;;;;5048058;28;20442;-74
2022/08/13 03:50:59;;;;;;;0.80;0.80;;;;;;;;;;5050787;28;20430;-73
2022/08/13 03:53:26;;;;;;;1.13;1.03;;;;;;;;;;5054102;28;20426;-73
2022/08/13 03:55:52;;;;;;;0.83;0.83;;;;;;;;;;5053544;28;20473;-73
2022/08/13 03:58:18;;;;;;;5.10;1.03;;;;;;;;;;5045853;28;20434;-73
2022/08/13 04:00:48;;;;;;;4.30;1.00;;;;;;;;;;5046453;28;20431;-73
2022/08/13 04:03:14;;;;;;;1.00;1.00;;;;;;;;;;5055929;28;20581;-73
2022/08/13 04:05:39;;;;;;;1.90;0.90;;;;;;;;;;5052278;28;20886;-73
2022/08/13 04:08:06;;;;;;;10.03;9.03;;;;;;;;;;5069692;28;20655;-73
2022/08/13 04:10:33;;;;;;;1.47;1.30;;;;;;;;;;5051497;28;20442;-73
2022/08/13 04:12:59;;;;;;;0.87;0.87;;;;;;;;;;5065949;28;20425;-73
2022/08/13 04:15:25;;;;;;;0.90;0.90;;;;;;;;;;5061719;28;20438;-73
2022/08/13 04:17:52;;;;;;;1.00;1.00;;;;;;;;;;5046719;28;20435;-73
2022/08/13 04:20:19;;;;;;;0.70;0.70;;;;;;;;;;5050253;28;20852;-73
2022/08/13 04:22:45;;;;;;;1.20;1.20;;;;;;;;;;5048302;28;20819;-73
2022/08/13 04:25:12;;;;;;;1.03;1.03;;;;;;;;;;5062800;28;20438;-73
2022/08/13 04:27:38;;;;;;;1.20;1.20;;;;;;;;;;5052458;28;20935;-73
2022/08/13 04:30:05;;;;;;;1.03;1.00;;;;;;;;;;5048911;28;20487;-73
2022/08/13 04:32:41;;;;;;;1.20;1.20;;;;;;;;;;5049264;28;20422;-73
2022/08/13 04:35:08;;;;;;;4.87;1.80;;;;;;;;;;5063032;28;20486;-73
2022/08/13 04:37:34;;;;;;;3.07;0.80;;;;;;;;;;5040645;28;20784;-73
2022/08/13 04:40:00;;;;;;;1.03;1.03;;;;;;;;;;5059142;28;20444;-73
2022/08/13 04:42:26;;;;;;;0.80;0.80;;;;;;;;;;5056628;28;20795;-73
2022/08/13 04:44:52;;;;;;;0.93;0.90;;;;;;;;;;5044735;28;20445;-73
2022/08/13 04:47:18;;;;;;;0.80;0.80;;;;;;;;;;5045595;28;20431;-73
2022/08/13 04:49:48;;;;;;;0.67;0.67;;;;;;;;;;5038969;28;20439;-73
2022/08/13 04:52:14;;;;;;;0.80;0.80;;;;;;;;;;5039840;28;20755;-73
2022/08/13 04:54:40;;;;;;;0.90;0.90;;;;;;;;;;5051532;28;20520;-73
2022/08/13 04:57:06;;;;;;;1.83;1.07;;;;;;;;;;5051943;28;20431;-73
2022/08/13 04:59:32;;;;;;;0.77;0.77;;;;;;;;;;5041727;28;20438;-73
2022/08/13 05:01:59;;;;;;;1.10;1.10;;;;;;;;;;5047538;28;20503;-73
2022/08/13 05:04:26;;;;;;;0.90;0.90;;;;;;;;;;5051660;28;20474;-73
2022/08/13 05:06:52;;;;;;;2.40;0.80;;;;;;;;;;5052223;28;20988;-73
2022/08/13 05:09:18;;;;;;;0.73;0.73;;;;;;;;;;5058299;28;20968;-73
2022/08/13 05:11:44;;;;;;;5.37;1.43;;;;;;;;;;5064919;28;20988;-73
2022/08/13 05:14:10;;;;;;;4.10;0.90;;;;;;;;;;5045816;28;20442;-73
2022/08/13 05:16:36;;;;;;;0.90;0.90;;;;;;;;;;5052588;28;20423;-73
2022/08/13 05:19:04;;;;;;;1.00;1.00;;;;;;;;;;5053475;28;20483;-72
2022/08/13 05:21:32;;;;;;;1.60;1.00;;;;;;;;;;5043967;28;20651;-73
2022/08/13 05:23:58;;;;;;;1.37;1.27;;;;;;;;;;5050090;28;20480;-73
2022/08/13 05:26:25;;;;;;;6.73;1.53;;;;;;;;;;5052929;28;20418;-72
2022/08/13 05:28:52;;;;;;;1.23;0.80;;;;;;;;;;5043701;28;20810;-73
2022/08/13 05:31:18;;;;;;;5.60;2.27;;;;;;;;;;5045987;28;20439;-73
2022/08/13 05:33:44;;;;;;;1.03;0.90;;;;;;;;;;5053313;28;20941;-73
2022/08/13 05:36:11;;;;;;;6.03;0.80;;;;;;;;;;5053804;28;20434;-72
2022/08/13 05:38:37;;;;;;;2.73;1.23;;;;;;;;;;5040323;28;20431;-77
2022/08/13 05:41:05;;;;;;;1.00;1.00;;;;;;;;;;5051870;28;20430;-77
2022/08/13 05:43:38;;;;;;;0.93;0.93;;;;;;;;;;5051348;28;20485;-75
2022/08/13 05:46:09;;;;;;;1.00;1.00;;;;;;;;;;5042930;28;20428;-75
2022/08/13 05:48:42;;;;;;;0.83;0.83;;;;;;;;;;5049947;28;20438;-77
2022/08/13 05:51:10;;;;;;;1.10;1.10;;;;;;;;;;5057233;28;20445;-76
2022/08/13 05:53:36;;;;;;;0.87;0.87;;;;;;;;;;5052241;28;20930;-75
2022/08/13 05:56:03;;;;;;;1.27;1.27;;;;;;;;;;5069617;28;20472;-75
2022/08/13 05:58:29;;;;;;;0.90;0.90;;;;;;;;;;5065448;28;20481;-74
2022/08/13 06:03:40;;;;;;;0.90;0.90;;;;;;;;;;5055466;28;21040;-79
2022/08/13 06:06:07;;;;;;;0.70;0.70;;;;;;;;;;5057505;28;20421;-74
2022/08/13 06:08:41;;;;;;;0.70;0.70;;;;;;;;;;5057222;28;20426;-77
2022/08/13 06:11:09;;;;;;;0.70;0.70;;;;;;;;;;5056420;28;20405;-72
2022/08/13 06:13:38;;;;;;;0.83;0.83;;;;;;;;;;5057223;28;20434;-73
2022/08/13 06:16:06;;;;;;;0.97;0.97;;;;;;;;;;5042719;28;20446;-73
2022/08/13 06:18:33;;;;;;;1.70;1.07;;;;;;;;;;5046353;28;20431;-72
2022/08/13 06:21:01;;;;;;;1.40;1.00;;;;;;;;;;5049414;28;20430;-72
2022/08/13 06:23:28;;;;;;;3.70;0.97;;;;;;;;;;5061937;28;20521;-72
2022/08/13 06:25:55;;;;;;;1.20;1.20;;;;;;;;;;5052121;28;20514;-72
2022/08/13 06:28:22;;;;;;;1.40;1.30;;;;;;;;;;5056512;28;20426;-72
2022/08/13 06:30:49;;;;;;;1.27;1.27;;;;;;;;;;5056638;28;20936;-73
2022/08/13 06:33:19;;;;;;;1.03;1.03;;;;;;;;;;5057054;28;20919;-74
2022/08/13 06:35:45;;;;;;;3.33;1.23;;;;;;;;;;5046658;28;21037;-73
2022/08/13 06:38:12;;;;;;;1.80;1.20;;;;;;;;;;5059062;28;20837;-73
2022/08/13 06:40:40;;;;;;;1.07;1.07;;;;;;;;;;5075916;28;20527;-73
2022/08/13 06:43:06;;;;;;;1.63;1.23;;;;;;;;;;5058417;28;20473;-73
2022/08/13 06:45:33;;;;;;;1.00;1.00;;;;;;;;;;5043031;28;20465;-73
2022/08/13 06:47:59;;;;;;;1.10;1.10;;;;;;;;;;5047130;28;20441;-73
2022/08/13 06:50:26;;;;;;;1.40;1.20;;;;;;;;;;5053553;28;20441;-73
2022/08/13 06:52:52;;;;;;;1.90;1.07;;;;;;;;;;5054752;28;20461;-73
2022/08/13 06:55:18;;;;;;;1.00;1.00;;;;;;;;;;5058835;28;20504;-76
2022/08/13 06:57:46;;;;;;;1.43;1.33;;;;;;;;;;5061804;28;20929;-76
2022/08/13 07:00:12;;;;;;;1.57;0.93;;;;;;;;;;5040346;28;20470;-76
2022/08/13 07:02:40;;;;;;;1.07;1.07;;;;;;;;;;5055068;28;20500;-75
2022/08/13 07:05:06;;;;;;;0.90;0.90;;;;;;;;;;5056520;28;20917;-74
2022/08/13 07:07:33;;;;;;;1.07;1.07;;;;;;;;;;5070492;28;20429;-77
2022/08/13 07:09:59;;;;;;;2.40;1.50;;;;;;;;;;5074510;28;20437;-77
2022/08/13 07:12:26;;;;;;;3.03;1.27;;;;;;;;;;5066596;28;20854;-76
2022/08/13 07:14:52;;;;;;;2.33;1.20;;;;;;;;;;5075131;28;20940;-76
2022/08/13 07:17:20;;;;;;;4.20;0.90;;;;;;;;;;5055659;28;20462;-76
2022/08/13 07:19:46;;;;;;;0.90;0.87;;;;;;;;;;5054258;28;20437;-76
2022/08/13 07:22:12;;;;;;;1.70;1.13;;;;;;;;;;5055227;28;20423;-76
2022/08/13 07:24:38;;;;;;;1.77;1.27;;;;;;;;;;5061750;28;20485;-76
2022/08/13 07:27:05;;;;;;;1.20;1.20;;;;;;;;;;5061847;28;20915;-78
2022/08/13 07:29:34;;;;;;;1.40;1.30;;;;;;;;;;5053233;28;20441;-75
2022/08/13 07:32:01;;;;;;;4.60;1.00;;;;;;;;;;5053815;28;20441;-76
2022/08/13 07:34:31;;;;;;;3.00;1.30;;;;;;;;;;5056807;28;20450;-76
2022/08/13 07:36:57;;;;;;;1.10;1.10;;;;;;;;;;5054192;28;20436;-77
2022/08/13 07:39:23;;;;;;;1.10;1.10;;;;;;;;;;5060225;28;20427;-75
2022/08/13 07:41:49;;;;;;;1.40;1.30;;;;;;;;;;5065378;28;20424;-75
2022/08/13 07:44:22;;;;;;;2.00;1.50;;;;;;;;;;5062032;28;20478;-76
2022/08/13 07:46:49;;;;;;;1.30;1.30;;;;;;;;;;5053342;28;20509;-76
2022/08/13 07:49:16;;;;;;;2.20;1.00;;;;;;;;;;5053966;28;20488;-76
2022/08/13 07:51:46;;;;;;;0.90;0.90;;;;;;;;;;5054269;28;20518;-77
2022/08/13 07:54:12;;;;;;;1.13;1.13;;;;;;;;;;5039221;28;20467;-77
2022/08/13 07:56:39;;;;;;;1.63;1.10;;;;;;;;;;5050144;28;20492;-76
2022/08/13 07:59:07;;;;;;;1.90;1.17;;;;;;;;;;5059333;28;20436;-78
2022/08/13 08:01:36;;;;;;;1.20;1.20;;;;;;;;;;5061529;28;21032;-76
2022/08/13 08:04:03;;;;;;;1.40;1.17;;;;;;;;;;5053847;28;20485;-77
2022/08/13 08:06:30;;;;;;;1.07;1.07;;;;;;;;;;5058713;28;20500;-76
2022/08/13 08:08:57;;;;;;;1.70;1.10;;;;;;;;;;5061360;28;20425;-76
2022/08/13 08:14:10;;;;;;;2.20;1.33;;;;;;;;;;5053983;28;20433;-75
2022/08/13 08:16:36;;;;;;;1.10;1.10;;;;;;;;;;5053373;28;20536;-75
2022/08/13 08:19:03;;;;;;;1.10;1.00;;;;;;;;;;5053363;28;20755;-73
2022/08/13 08:21:29;;;;;;;2.60;1.20;;;;;;;;;;5050062;28;20435;-74
2022/08/13 08:23:57;;;;;;;1.20;1.20;;;;;;;;;;5059417;28;20488;-73
2022/08/13 08:26:23;;;;;;;1.27;1.20;;;;;;;;;;5072046;28;20844;-74
2022/08/13 08:28:50;;;;;;;2.40;1.23;;;;;;;;;;5071569;28;20417;-75
2022/08/13 08:31:16;;;;;;;1.40;0.80;;;;;;;;;;5068038;28;20417;-73
2022/08/13 08:33:42;;;;;;;4.37;1.70;;;;;;;;;;5056407;28;20429;-74
2022/08/13 08:36:08;;;;;;;2.30;1.50;;;;;;;;;;5058666;28;20465;-74
2022/08/13 08:44:14;;;;;;;1.07;1.07;;;;;;;;;;5053520;28;20531;-74
2022/08/13 08:46:41;;;;;;;3.07;1.07;;;;;;;;;;5051103;28;20814;-74
2022/08/13 08:49:07;;;;;;;0.97;0.97;;;;;;;;;;5054744;28;20465;-74
2022/08/13 08:51:33;;;;;;;1.20;1.20;;;;;;;;;;5071852;28;20417;-74
2022/08/13 08:54:00;;;;;;;2.80;1.37;;;;;;;;;;5052024;28;20495;-80
2022/08/13 08:56:28;;;;;;;1.37;1.37;;;;;;;;;;5052504;28;20192;-73
2022/08/13 08:58:55;;;;;;;1.73;1.33;;;;;;;;;;5054750;28;20426;-74
2022/08/13 09:01:24;;;;;;;0.90;0.90;;;;;;;;;;5061361;28;20425;-77
2022/08/13 09:03:50;;;;;;;1.47;1.43;;;;;;;;;;5054116;28;20489;-73
2022/08/13 09:06:17;;;;;;;3.40;1.90;;;;;;;;;;5053009;28;20422;-73
2022/08/13 09:08:46;;;;;;;1.37;1.27;;;;;;;;;;5052628;28;20517;-73
2022/08/13 09:11:12;;;;;;;1.40;1.27;;;;;;;;;;5052069;28;20572;-73
2022/08/13 09:13:38;;;;;;;1.33;1.33;;;;;;;;;;5052656;28;20464;-73
2022/08/13 09:16:04;;;;;;;2.87;1.20;;;;;;;;;;5051471;28;20430;-73
2022/08/13 09:18:32;;;;;;;1.07;1.07;;;;;;;;;;5052696;28;20927;-73
2022/08/13 09:20:58;;;;;;;1.03;1.03;;;;;;;;;;5052359;28;20426;-74
2022/08/13 09:23:24;;;;;;;1.70;1.60;;;;;;;;;;5052873;28;20485;-74
2022/08/13 09:25:51;;;;;;;1.00;1.00;;;;;;;;;;5052620;28;20930;-73
2022/08/13 09:28:23;;;;;;;2.53;1.00;;;;;;;;;;5051183;28;20461;-73
2022/08/13 09:30:50;;;;;;;2.70;1.60;;;;;;;;;;5047056;28;20919;-74
2022/08/13 09:33:17;;;;;;;3.77;1.00;;;;;;;;;;5052713;28;20426;-73
2022/08/13 09:35:43;;;;;;;1.20;1.07;;;;;;;;;;5057512;28;20422;-73
2022/08/13 09:38:09;;;;;;;2.70;1.40;;;;;;;;;;5051278;28;20464;-73
2022/08/13 09:40:39;;;;;;;1.37;1.33;;;;;;;;;;5052327;28;20417;-73
2022/08/13 09:43:08;;;;;;;1.10;0.80;;;;;;;;;;5052043;28;20990;-73
2022/08/13 09:45:34;;;;;;;4.33;1.27;;;;;;;;;;5050900;28;20440;-74
2022/08/13 09:48:00;;;;;;;1.40;1.40;;;;;;;;;;5043368;28;20419;-74
2022/08/13 09:50:26;;;;;;;1.20;1.20;;;;;;;;;;5050855;28;20474;-73
2022/08/13 09:52:53;;;;;;;1.00;1.00;;;;;;;;;;5052687;28;20458;-73
2022/08/13 09:55:22;;;;;;;1.60;1.50;;;;;;;;;;5052161;28;20502;-73
2022/08/13 09:57:52;;;;;;;1.37;1.37;;;;;;;;;;5051568;28;20945;-73
2022/08/13 10:00:24;;;;;;;1.00;1.00;;;;;;;;;;5051450;28;20519;-73
2022/08/13 10:02:52;;;;;;;1.00;1.00;;;;;;;;;;5052317;28;20419;-73
2022/08/13 10:05:18;;;;;;;4.73;1.60;;;;;;;;;;5052666;28;20434;-73
2022/08/13 10:07:47;;;;;;;9.23;1.40;;;;;;;;;;5048800;28;20426;-73
2022/08/13 10:10:14;;;;;;;3.17;1.30;;;;;;;;;;5050850;28;20435;-73
2022/08/13 10:12:41;;;;;;;4.00;1.10;;;;;;;;;;5052306;28;20414;-73
2022/08/13 10:15:08;;;;;;;1.00;1.00;;;;;;;;;;5052191;28;20422;-73
2022/08/13 10:17:44;;;;;;;2.87;1.20;;;;;;;;;;5058310;28;20426;-73
2022/08/13 10:20:11;;;;;;;1.63;0.93;;;;;;;;;;5051812;28;20525;-74
2022/08/13 10:22:37;;;;;;;1.00;1.00;;;;;;;;;;5070831;28;20429;-73
2022/08/13 10:25:03;;;;;;;1.20;1.20;;;;;;;;;;5052499;28;20465;-73
2022/08/13 10:27:29;;;;;;;0.97;0.97;;;;;;;;;;5062356;28;20437;-74
2022/08/13 10:29:55;;;;;;;1.67;1.57;;;;;;;;;;5060007;28;20501;-73
2022/08/13 10:32:20;;;;;;;1.20;1.20;;;;;;;;;;5055901;28;20219;-74
2022/08/13 10:34:46;;;;;;;1.20;1.10;;;;;;;;;;5056523;28;20188;-74
2022/08/13 10:37:12;;;;;;;2.43;0.90;;;;;;;;;;5051262;28;20434;-74
2022/08/13 10:39:39;;;;;;;5.30;1.60;;;;;;;;;;5055712;28;20671;-74
2022/08/13 10:42:06;;;;;;;2.53;1.00;;;;;;;;;;5058067;28;20853;-73
2022/08/13 10:44:32;;;;;;;1.17;1.17;;;;;;;;;;5061249;28;20476;-74
2022/08/13 10:46:59;;;;;;;3.43;1.73;;;;;;;;;;5053285;28;20445;-73
2022/08/13 10:49:25;;;;;;;0.97;0.97;;;;;;;;;;5055566;28;20875;-74
2022/08/13 10:51:51;;;;;;;1.50;1.47;;;;;;;;;;5055249;28;20422;-73
2022/08/13 10:54:18;;;;;;;4.63;1.40;;;;;;;;;;5054782;28;20473;-73
2022/08/13 10:56:44;;;;;;;4.00;1.40;;;;;;;;;;5055597;28;20176;-74
2022/08/13 10:59:10;;;;;;;1.63;1.63;;;;;;;;;;5055302;28;20521;-74
2022/08/13 11:01:36;;;;;;;1.40;1.40;;;;;;;;;;5054422;28;20489;-74
2022/08/13 11:04:05;;;;;;;1.10;1.10;;;;;;;;;;5054020;28;20477;-73
2022/08/13 11:06:32;;;;;;;2.87;1.30;;;;;;;;;;5064179;28;20195;-74
2022/08/13 11:08:59;;;;;;;1.10;1.10;;;;;;;;;;5053950;28;20434;-74
2022/08/13 11:11:25;;;;;;;1.23;1.23;;;;;;;;;;5050080;28;20430;-74
2022/08/13 11:13:51;;;;;;;0.97;0.97;;;;;;;;;;5055911;28;20466;-74
2022/08/13 11:18:59;;;;;;;1.10;1.10;;;;;;;;;;5075267;28;20942;-74
2022/08/13 11:21:25;;;;;;;2.00;1.20;;;;;;;;;;5063505;28;20430;-73
2022/08/13 11:23:52;;;;;;;4.53;1.00;;;;;;;;;;5054251;28;20685;-73
2022/08/13 11:26:18;;;;;;;1.63;1.23;;;;;;;;;;5054785;28;20433;-73
2022/08/13 11:28:44;;;;;;;1.43;1.00;;;;;;;;;;5054549;28;20434;-74
2022/08/13 11:31:09;;;;;;;1.80;1.10;;;;;;;;;;5052887;28;20773;-73
2022/08/13 11:33:35;;;;;;;0.93;0.93;;;;;;;;;;5052601;28;20814;-74
2022/08/13 11:36:01;;;;;;;2.03;0.97;;;;;;;;;;5058446;28;20422;-75
2022/08/13 11:38:27;;;;;;;1.40;1.40;;;;;;;;;;5054691;28;20439;-74
2022/08/13 11:40:55;;;;;;;1.00;1.00;;;;;;;;;;5054422;28;20414;-75
2022/08/13 11:43:26;;;;;;;1.30;1.20;;;;;;;;;;5053093;28;20474;-75
2022/08/13 11:45:52;;;;;;;1.40;1.10;;;;;;;;;;5058089;28;20431;-75
2022/08/13 11:48:18;;;;;;;1.50;1.50;;;;;;;;;;5047112;28;20438;-74
2022/08/13 11:50:44;;;;;;;1.27;1.17;;;;;;;;;;5053346;28;20485;-74
2022/08/13 11:53:10;;;;;;;1.63;1.27;;;;;;;;;;5054490;28;20414;-74
2022/08/13 11:55:37;;;;;;;4.07;1.73;;;;;;;;;;5057293;28;20227;-74
2022/08/13 11:58:07;;;;;;;1.60;1.50;;;;;;;;;;5054222;28;20418;-74
2022/08/13 12:00:34;;;;;;;4.53;1.50;;;;;;;;;;5040732;28;20942;-74
2022/08/13 12:03:00;;;;;;;1.20;1.20;;;;;;;;;;5034206;28;20473;-74
2022/08/13 12:05:27;;;;;;;1.17;1.17;;;;;;;;;;5063784;28;20540;-74
2022/08/13 12:07:53;;;;;;;2.77;1.40;;;;;;;;;;5064239;28;20516;-75
2022/08/13 12:10:20;;;;;;;1.77;1.30;;;;;;;;;;5053684;28;20835;-75
2022/08/13 12:12:46;;;;;;;1.30;1.30;;;;;;;;;;5066322;28;20421;-75
2022/08/13 12:15:13;;;;;;;1.47;1.47;;;;;;;;;;5072441;28;20414;-74
2022/08/13 12:17:42;;;;;;;1.80;1.10;;;;;;;;;;5056371;28;20449;-74
2022/08/13 12:20:11;;;;;;;1.27;0.87;;;;;;;;;;5053436;28;20414;-74
2022/08/13 12:22:37;;;;;;;2.83;1.03;;;;;;;;;;5053788;28;20421;-74
2022/08/13 12:25:04;;;;;;;0.90;0.90;;;;;;;;;;5036422;28;20459;-74
2022/08/13 12:27:30;;;;;;;1.07;1.07;;;;;;;;;;5046008;28;20862;-74
2022/08/13 12:29:56;;;;;;;0.90;0.90;;;;;;;;;;5052823;28;20961;-74
2022/08/13 12:32:22;;;;;;;3.77;1.03;;;;;;;;;;5051470;28;20678;-76
2022/08/13 12:34:48;;;;;;;1.37;1.33;;;;;;;;;;5051983;28;20652;-75
2022/08/13 12:37:14;;;;;;;1.17;1.17;;;;;;;;;;5052850;28;20533;-74
2022/08/13 12:39:40;;;;;;;1.10;1.10;;;;;;;;;;5054303;28;20426;-74
2022/08/13 12:42:06;;;;;;;1.03;1.03;;;;;;;;;;5051915;28;20413;-74
2022/08/13 12:44:32;;;;;;;1.20;1.13;;;;;;;;;;5053070;28;20309;-74
2022/08/13 12:46:58;;;;;;;1.80;1.23;;;;;;;;;;5043676;28;20584;-74
2022/08/13 12:49:24;;;;;;;1.00;0.93;;;;;;;;;;5043640;28;20799;-74
2022/08/13 12:51:51;;;;;;;1.10;1.10;;;;;;;;;;5049934;28;20904;-74
2022/08/13 12:54:18;;;;;;;7.77;1.20;;;;;;;;;;5052150;28;20589;-74
2022/08/13 12:56:45;;;;;;;2.00;1.63;;;;;;;;;;5047610;28;20522;-74
2022/08/13 12:59:11;;;;;;;1.00;1.00;;;;;;;;;;5052573;28;20930;-74
2022/08/13 13:01:37;;;;;;;1.13;0.90;;;;;;;;;;5056414;28;20434;-74
2022/08/13 13:04:03;;;;;;;1.00;1.00;;;;;;;;;;5052529;28;20474;-74
2022/08/13 13:06:29;;;;;;;1.27;1.27;;;;;;;;;;5052805;28;20910;-74
2022/08/13 13:08:55;;;;;;;1.60;0.80;;;;;;;;;;5051819;28;20483;-74
2022/08/13 13:11:22;;;;;;;1.00;1.00;;;;;;;;;;5055075;28;20433;-74
2022/08/13 13:13:49;;;;;;;1.30;1.30;;;;;;;;;;5048272;28;20418;-74
2022/08/13 13:16:16;;;;;;;3.27;1.30;;;;;;;;;;5041966;28;20435;-74
2022/08/13 13:18:43;;;;;;;1.17;1.17;;;;;;;;;;5048018;28;20776;-74
2022/08/13 13:21:09;;;;;;;1.43;1.27;;;;;;;;;;5052470;28;20422;-74
2022/08/13 13:23:39;;;;;;;1.17;1.17;;;;;;;;;;5056231;28;20878;-74
2022/08/13 13:26:05;;;;;;;1.40;1.40;;;;;;;;;;5071480;28;20422;-74
2022/08/13 13:28:31;;;;;;;4.27;1.10;;;;;;;;;;5072243;28;20429;-74
2022/08/13 13:30:58;;;;;;;1.20;1.20;;;;;;;;;;5071985;28;20413;-74
2022/08/13 13:33:24;;;;;;;3.67;1.30;;;;;;;;;;5056247;28;20422;-74
2022/08/13 13:35:51;;;;;;;1.30;1.30;;;;;;;;;;5052588;28;20895;-74
2022/08/13 13:38:19;;;;;;;3.13;1.10;;;;;;;;;;5065839;28;20418;-74
2022/08/13 13:40:46;;;;;;;1.27;1.27;;;;;;;;;;5070491;28;20797;-74
2022/08/13 13:43:13;;;;;;;2.30;1.17;;;;;;;;;;5052574;28;20457;-74
2022/08/13 13:45:39;;;;;;;3.23;1.17;;;;;;;;;;5055280;28;20442;-74
2022/08/13 13:48:24;;;;;;;1.20;1.10;;;;;;;;;;5051535;28;20445;-74
2022/08/13 13:50:57;;;;;;;1.00;1.00;;;;;;;;;;5052048;28;20632;-74
2022/08/13 13:53:28;;;;;;;1.40;1.40;;;;;;;;;;5052525;28;20472;-74
2022/08/13 13:55:54;;;;;;;1.03;1.03;;;;;;;;;;5052341;28;20552;-74
2022/08/13 13:58:21;;;;;;;0.77;0.77;;;;;;;;;;5057525;28;20430;-74
2022/08/13 14:00:47;;;;;;;1.00;1.00;;;;;;;;;;5051461;28;20410;-74
2022/08/13 14:03:13;;;;;;;1.00;1.00;;;;;;;;;;5052333;28;20462;-74
2022/08/13 14:05:40;;;;;;;0.70;0.70;;;;;;;;;;5053210;28;20418;-74
2022/08/13 14:08:07;;;;;;;0.83;0.83;;;;;;;;;;5055976;28;20418;-74
2022/08/13 14:10:34;;;;;;;3.73;1.77;;;;;;;;;;5056553;28;20496;-74
2022/08/13 14:13:01;;;;;;;0.63;0.63;;;;;;;;;;5056256;28;20433;-74
2022/08/13 14:15:32;;;;;;;0.80;0.80;;;;;;;;;;5051898;28;20470;-74
2022/08/13 14:17:58;;;;;;;6.33;0.77;;;;;;;;;;5048125;28;20414;-74
2022/08/13 14:20:24;;;;;;;3.57;1.00;;;;;;;;;;5058938;28;20461;-74
2022/08/13 14:22:51;;;;;;;1.30;1.30;;;;;;;;;;5055591;28;20441;-74
2022/08/13 14:25:18;;;;;;;1.37;1.27;;;;;;;;;;5051219;28;20525;-74
2022/08/13 14:27:45;;;;;;;0.87;0.87;;;;;;;;;;5050290;28;20426;-74
2022/08/13 14:30:11;;;;;;;1.33;1.33;;;;;;;;;;5061832;28;20434;-74
2022/08/13 14:32:37;;;;;;;1.10;1.00;;;;;;;;;;5075762;28;20901;-74
2022/08/13 14:35:09;;;;;;;0.80;0.80;;;;;;;;;;5075573;28;20494;-74
2022/08/13 14:37:40;;;;;;;0.87;0.87;;;;;;;;;;5075525;28;20413;-74
2022/08/13 14:40:07;;;;;;;2.87;1.10;;;;;;;;;;5075346;28;20496;-74
2022/08/13 14:42:41;;;;;;;1.23;1.23;;;;;;;;;;5061082;28;20446;-74
2022/08/13 14:47:53;;;;;;;0.90;0.90;;;;;;;;;;5055635;28;20410;-74
2022/08/13 14:50:23;;;;;;;1.13;1.00;;;;;;;;;;5054811;28;20422;-74
2022/08/13 14:52:50;;;;;;;6.93;1.00;;;;;;;;;;5055419;28;20410;-74
2022/08/13 14:55:17;;;;;;;0.80;0.80;;;;;;;;;;5064307;28;20984;-74
2022/08/13 14:57:43;;;;;;;4.27;1.00;;;;;;;;;;5075349;28;20402;-74
2022/08/13 15:00:10;;;;;;;1.10;1.10;;;;;;;;;;5074325;28;20417;-74
2022/08/13 15:02:38;;;;;;;2.20;1.10;;;;;;;;;;5061882;28;20440;-74
2022/08/13 15:05:05;;;;;;;7.70;1.20;;;;;;;;;;5055037;28;20552;-74
2022/08/13 15:07:31;;;;;;;0.90;0.90;;;;;;;;;;5056333;28;20434;-74